Time;durP1;ratioP1;P1;durP2;ratioP2;P2;SDS_P1;SDS_P2;PMS_P1;PMS_P2;Temp;Humidity;BMP_temperature;BMP_pressure;BME280_temperature;BME280_humidity;BME280_pressure;Samples;Min_cycle;Max_cycle;Signal;HPM_P1;HPM_P2
2022/06/09 00:02:04;;;;;;;;;4.33;2.33;;;;;16.16;100.00;100922.75;5054195;28;45716;-77
2022/06/09 00:04:34;;;;;;;;;1.00;1.00;;;;;16.13;100.00;100927.94;5054217;28;45836;-76
2022/06/09 00:07:05;;;;;;;;;3.67;1.00;;;;;16.11;100.00;100932.84;5051324;28;45911;-77
2022/06/09 00:09:41;;;;;;;;;4.33;3.67;;;;;16.02;100.00;100932.41;5053534;28;45604;-78
2022/06/09 00:12:08;;;;;;;;;2.33;2.33;;;;;16.04;100.00;100942.13;5054214;28;45855;-79
2022/06/09 00:14:36;;;;;;;;;6.67;6.00;;;;;16.02;100.00;100941.53;5055416;28;45427;-79
2022/06/09 00:17:02;;;;;;;;;3.00;3.00;;;;;15.98;100.00;100934.78;5054738;28;45887;-77
2022/06/09 00:19:27;;;;;;;;;3.00;2.00;;;;;15.86;100.00;100920.13;5036451;28;45613;-79
2022/06/09 00:21:53;;;;;;;;;3.67;3.67;;;;;15.94;100.00;100952.09;5055863;28;45710;-76
2022/06/09 00:24:18;;;;;;;;;3.00;2.00;;;;;15.75;100.00;100926.44;5055615;28;45419;-77
2022/06/09 00:26:44;;;;;;;;;2.00;2.00;;;;;15.83;100.00;100945.50;5055140;28;45389;-79
2022/06/09 00:29:09;;;;;;;;;3.00;3.00;;;;;15.75;100.00;100937.50;5037620;28;46937;-79
2022/06/09 00:31:35;;;;;;;;;4.67;3.67;;;;;15.76;100.00;100962.16;5048612;28;45412;-81
2022/06/09 00:34:01;;;;;;;;;3.67;2.33;;;;;15.71;100.00;100960.09;5051023;28;45445;-79
2022/06/09 00:36:28;;;;;;;;;2.33;2.33;;;;;15.69;100.00;100962.28;5038684;28;46100;-80
2022/06/09 00:38:55;;;;;;;;;4.33;4.00;;;;;15.68;100.00;100959.75;5056063;28;45528;-78
2022/06/09 00:41:20;;;;;;;;;4.67;4.67;;;;;15.68;100.00;100960.56;5053871;28;45816;-78
2022/06/09 00:43:46;;;;;;;;;8.00;4.00;;;;;15.65;100.00;100957.47;5056723;28;45561;-79
2022/06/09 00:46:15;;;;;;;;;2.00;2.00;;;;;15.63;100.00;100954.94;5049747;28;45387;-78
2022/06/09 00:48:54;;;;;;;;;4.00;2.67;;;;;15.53;100.00;100952.72;5056311;28;45433;-79
2022/06/09 00:51:38;;;;;;;;;3.00;1.67;;;;;15.59;100.00;100959.25;5054938;28;45458;-80
2022/06/09 00:54:17;;;;;;;;;2.33;1.33;;;;;15.27;100.00;100906.16;5034697;28;45856;-77
2022/06/09 00:56:49;;;;;;;;;2.00;1.67;;;;;15.57;100.00;100958.66;5052634;28;45739;-77
2022/06/09 00:59:18;;;;;;;;;2.00;2.00;;;;;15.57;100.00;100968.84;5047241;28;45796;-79
2022/06/09 01:01:44;;;;;;;;;4.33;3.00;;;;;15.47;100.00;100948.16;5055727;28;45731;-80
2022/06/09 01:04:13;;;;;;;;;3.67;3.00;;;;;15.55;100.00;100963.56;5053254;28;45604;-76
2022/06/09 01:06:43;;;;;;;;;1.67;1.67;;;;;15.56;100.00;100965.25;5034461;28;47171;-77
2022/06/09 01:09:15;;;;;;;;;4.33;3.00;;;;;15.50;100.00;100966.19;5054223;28;45704;-77
2022/06/09 01:11:42;;;;;;;;;2.33;2.33;;;;;15.49;100.00;100961.75;5053270;28;45948;-75
2022/06/09 01:14:13;;;;;;;;;6.00;3.00;;;;;15.54;100.00;100968.25;5032061;28;45962;-75
2022/06/09 01:17:16;;;;;;;;;1.00;1.00;;;;;15.54;100.00;100970.19;5025941;28;45818;-77
2022/06/09 01:20:04;;;;;;;;;4.00;2.00;;;;;15.54;100.00;100975.72;5041809;28;45412;-78
2022/06/09 01:22:57;;;;;;;;;3.67;3.00;;;;;15.46;100.00;100962.22;5035063;28;45796;-79
2022/06/09 01:26:05;;;;;;;;;3.67;1.00;;;;;15.49;100.00;100972.78;5034998;28;45894;-79
2022/06/09 01:28:52;;;;;;;;;5.33;2.67;;;;;15.47;100.00;100974.97;5033563;28;47215;-77
2022/06/09 01:31:27;;;;;;;;;2.67;2.00;;;;;15.45;100.00;100977.97;5034868;28;47252;-77
2022/06/09 01:33:55;;;;;;;;;2.00;2.00;;;;;15.43;100.00;100979.28;5052912;28;45511;-77
2022/06/09 01:36:41;;;;;;;;;5.67;1.00;;;;;15.40;100.00;100979.75;5053852;28;45722;-78
2022/06/09 01:39:07;;;;;;;;;5.00;1.33;;;;;15.32;100.00;100973.47;5047676;28;45688;-78
2022/06/09 01:41:33;;;;;;;;;5.00;4.00;;;;;15.38;100.00;100996.56;5052717;28;45936;-76
2022/06/09 01:44:00;;;;;;;;;3.33;2.00;;;;;15.37;100.00;100992.09;5053374;28;45566;-75
2022/06/09 01:46:36;;;;;;;;;2.33;2.33;;;;;15.34;100.00;100990.66;5053509;28;45499;-77
2022/06/09 01:49:08;;;;;;;;;2.00;2.00;;;;;15.33;100.00;101004.72;5053221;28;45353;-78
2022/06/09 01:51:36;;;;;;;;;4.00;3.00;;;;;15.02;100.00;100953.31;5053721;28;46422;-77
2022/06/09 01:54:15;;;;;;;;;7.00;3.33;;;;;15.36;100.00;101010.63;5052498;28;45684;-77
2022/06/09 01:56:49;;;;;;;;;5.00;2.33;;;;;15.38;100.00;101007.63;5047517;28;45787;-77
2022/06/09 01:59:31;;;;;;;;;3.00;2.00;;;;;15.26;100.00;100987.38;5040262;28;45867;-77
2022/06/09 02:02:04;;;;;;;;;1.67;1.67;;;;;15.45;100.00;101018.56;5048456;28;46025;-76
2022/06/09 02:04:43;;;;;;;;;1.33;1.00;;;;;15.49;100.00;101019.78;5052732;28;45827;-79
2022/06/09 02:07:10;;;;;;;;;3.00;1.67;;;;;15.42;100.00;101006.06;5034871;28;45357;-79
2022/06/09 02:09:37;;;;;;;;;3.67;2.00;;;;;15.52;100.00;101022.94;5052304;28;45772;-78
2022/06/09 02:12:15;;;;;;;;;2.67;2.67;;;;;15.54;100.00;101023.53;5031829;28;48148;-79
2022/06/09 02:14:47;;;;;;;;;6.00;2.00;;;;;15.53;100.00;101027.38;5052934;28;45690;-79
2022/06/09 02:17:13;;;;;;;;;5.33;3.00;;;;;15.50;100.00;101024.25;5012805;28;45825;-76
2022/06/09 02:19:40;;;;;;;;;1.67;1.67;;;;;15.55;100.00;101038.19;5038287;28;45957;-79
2022/06/09 02:22:09;;;;;;;;;1.67;1.67;;;;;15.45;100.00;101030.47;5039152;28;45506;-79
2022/06/09 02:24:35;;;;;;;;;2.67;2.67;;;;;15.53;100.00;101034.84;5048274;28;45427;-79
2022/06/09 02:27:01;;;;;;;;;4.33;3.00;;;;;15.48;100.00;101018.13;5034964;28;45776;-76
2022/06/09 02:29:27;;;;;;;;;3.33;1.67;;;;;15.51;100.00;101028.72;5052479;28;45980;-77
2022/06/09 02:31:53;;;;;;;;;3.33;3.33;;;;;15.31;100.00;101002.19;5047320;28;47937;-78
2022/06/09 02:34:19;;;;;;;;;3.33;2.67;;;;;15.18;100.00;100994.09;5047654;28;45466;-77
2022/06/09 02:36:45;;;;;;;;;3.00;2.00;;;;;15.39;100.00;101025.03;5021237;28;45589;-78
2022/06/09 02:39:11;;;;;;;;;4.00;2.67;;;;;15.23;100.00;101018.25;5052644;28;45612;-78
2022/06/09 02:41:36;;;;;;;;;5.00;2.00;;;;;15.29;100.00;101022.84;5053013;28;45739;-78
2022/06/09 02:44:02;;;;;;;;;2.67;1.33;;;;;15.23;100.00;101023.78;5053500;28;45328;-79
2022/06/09 02:46:28;;;;;;;;;5.00;1.00;;;;;15.30;100.00;101036.44;5053187;28;45445;-76
2022/06/09 02:48:54;;;;;;;;;4.67;3.00;;;;;15.26;100.00;101037.97;5048483;28;45742;-75
2022/06/09 02:51:28;;;;;;;;;3.33;3.00;;;;;15.18;100.00;101028.06;5051541;28;46284;-76
2022/06/09 02:53:59;;;;;;;;;4.00;2.67;;;;;15.19;100.00;101028.91;5048083;28;45977;-77
2022/06/09 02:56:25;;;;;;;;;2.67;1.33;;;;;15.12;100.00;101029.00;5054033;28;45463;-79
2022/06/09 02:58:52;;;;;;;;;1.00;1.00;;;;;15.29;100.00;101040.25;5053163;28;45387;-76
2022/06/09 03:01:18;;;;;;;;;8.33;2.67;;;;;15.29;100.00;101045.78;5052482;28;45703;-76
2022/06/09 03:03:43;;;;;;;;;4.00;2.00;;;;;15.33;100.00;101051.72;5051663;28;45437;-76
2022/06/09 03:06:08;;;;;;;;;6.00;3.00;;;;;15.33;100.00;101040.66;5052478;28;45450;-76
2022/06/09 03:08:34;;;;;;;;;3.67;2.00;;;;;15.30;100.00;101047.47;5051805;28;45933;-80
2022/06/09 03:11:00;;;;;;;;;3.00;3.00;;;;;15.30;100.00;101049.38;5051159;28;45527;-76
2022/06/09 03:13:25;;;;;;;;;3.00;2.33;;;;;15.23;100.00;101043.94;5029956;28;45528;-77
2022/06/09 03:15:51;;;;;;;;;5.00;2.67;;;;;15.25;100.00;101043.72;5052456;28;45593;-76
2022/06/09 03:18:18;;;;;;;;;2.00;1.00;;;;;15.19;100.00;101045.50;5051756;28;45540;-76
2022/06/09 03:20:44;;;;;;;;;2.67;1.33;;;;;15.04;100.00;101023.78;5049593;28;47433;-76
2022/06/09 03:23:10;;;;;;;;;4.00;3.00;;;;;15.09;100.00;101034.13;5051588;28;45442;-75
2022/06/09 03:25:36;;;;;;;;;8.00;4.00;;;;;15.13;100.00;101046.41;5051411;28;45692;-78
2022/06/09 03:28:02;;;;;;;;;3.33;2.00;;;;;15.11;100.00;101046.66;5027974;28;45582;-79
2022/06/09 03:30:31;;;;;;;;;5.67;2.00;;;;;15.06;100.00;101052.03;5027684;28;46843;-76
2022/06/09 03:32:57;;;;;;;;;3.67;2.67;;;;;14.94;100.00;101038.16;5053058;28;45779;-79
2022/06/09 03:35:22;;;;;;;;;2.00;2.00;;;;;15.01;100.00;101057.41;5052668;28;45865;-77
2022/06/09 03:37:47;;;;;;;;;3.00;2.67;;;;;14.97;100.00;101058.94;5033471;28;46219;-78
2022/06/09 03:40:20;;;;;;;;;3.00;2.00;;;;;14.93;100.00;101066.84;5034998;28;46672;-78
2022/06/09 03:42:46;;;;;;;;;2.00;2.00;;;;;14.94;100.00;101070.44;5050286;28;45454;-76
2022/06/09 03:45:14;;;;;;;;;7.67;4.00;;;;;14.93;100.00;101074.28;5051611;28;45493;-76
2022/06/09 03:47:40;;;;;;;;;2.00;2.00;;;;;14.91;100.00;101076.41;5048978;28;45677;-76
2022/06/09 03:50:08;;;;;;;;;4.00;3.00;;;;;14.90;100.00;101075.59;5051417;28;46399;-80
2022/06/09 03:52:33;;;;;;;;;5.00;3.00;;;;;14.89;100.00;101086.88;5051119;28;45772;-76
2022/06/09 03:54:59;;;;;;;;;4.33;2.67;;;;;14.72;100.00;101067.31;5051457;28;45480;-77
2022/06/09 03:57:25;;;;;;;;;5.67;3.00;;;;;14.89;100.00;101098.75;5023802;28;45626;-80
2022/06/09 03:59:51;;;;;;;;;3.67;2.67;;;;;14.74;100.00;101073.44;5051688;28;45450;-77
2022/06/09 04:02:17;;;;;;;;;5.33;2.67;;;;;14.87;100.00;101102.81;5051090;28;45748;-76
2022/06/09 04:04:42;;;;;;;;;4.00;3.00;;;;;14.93;100.00;101101.91;5052016;28;45984;-77
2022/06/09 04:07:10;;;;;;;;;6.00;4.67;;;;;14.97;100.00;101095.69;5048861;28;45888;-77
2022/06/09 04:09:36;;;;;;;;;7.67;3.00;;;;;14.85;100.00;101071.81;5054666;28;46456;-76
2022/06/09 04:12:02;;;;;;;;;5.00;3.67;;;;;15.15;100.00;101085.72;5036896;28;45407;-78
2022/06/09 04:14:27;;;;;;;;;4.00;2.67;;;;;15.42;100.00;101094.53;5037003;28;45801;-77
2022/06/09 04:16:55;;;;;;;;;8.00;3.00;;;;;15.18;100.00;101022.56;5055813;28;45877;-77
2022/06/09 04:19:22;;;;;;;;;3.67;3.33;;;;;15.92;100.00;101104.47;5054300;28;46579;-77
2022/06/09 04:21:48;;;;;;;;;3.00;3.00;;;;;16.23;100.00;101100.59;5054616;28;45496;-78
2022/06/09 04:24:15;;;;;;;;;8.67;4.33;;;;;16.50;100.00;101086.28;5055094;28;45945;-78
2022/06/09 04:26:42;;;;;;;;;1.33;1.33;;;;;16.57;100.00;101053.78;5033092;28;45962;-77
2022/06/09 04:29:11;;;;;;;;;3.33;2.33;;;;;17.28;100.00;101094.44;5051478;28;45511;-76
2022/06/09 04:31:36;;;;;;;;;2.33;2.00;;;;;17.74;100.00;101087.03;5054985;28;45525;-77
2022/06/09 04:34:02;;;;;;;;;4.00;2.33;;;;;18.13;100.00;101080.81;5053335;28;45407;-77
2022/06/09 04:36:27;;;;;;;;;9.00;4.33;;;;;18.65;100.00;101085.25;5055921;28;45443;-79
2022/06/09 04:38:53;;;;;;;;;8.67;5.67;;;;;19.15;100.00;101086.25;5056026;28;46729;-78
2022/06/09 04:41:18;;;;;;;;;4.00;3.67;;;;;19.51;100.00;101065.28;5048989;28;45473;-76
2022/06/09 04:43:46;;;;;;;;;13.00;8.00;;;;;20.21;100.00;101081.28;5052012;28;46034;-75
2022/06/09 04:46:15;;;;;;;;;9.33;7.33;;;;;20.70;100.00;101085.88;5048462;28;45572;-75
2022/06/09 04:48:41;;;;;;;;;4.33;2.67;;;;;21.17;100.00;101080.28;5051427;28;47076;-76
2022/06/09 04:51:08;;;;;;;;;4.00;2.00;;;;;21.40;100.00;101029.88;5034708;28;45854;-76
2022/06/09 04:53:34;;;;;;;;;3.00;2.00;;;;;21.92;100.00;101084.72;5053099;28;45787;-76
2022/06/09 04:55:59;;;;;;;;;2.67;2.67;;;;;21.55;100.00;101080.16;5052401;28;45769;-76
2022/06/09 04:58:26;;;;;;;;;7.67;2.00;;;;;21.70;100.00;101101.69;5051260;28;46616;-77
2022/06/09 05:00:52;;;;;;;;;3.00;2.00;;;;;21.77;100.00;101104.25;5050724;28;45766;-76
2022/06/09 05:03:19;;;;;;;;;6.33;2.67;;;;;22.14;100.00;101101.22;5033567;28;45831;-76
2022/06/09 05:05:46;;;;;;;;;5.00;2.00;;;;;22.16;100.00;101101.78;5047850;28;45579;-76
2022/06/09 05:08:12;;;;;;;;;4.00;2.00;;;;;22.47;100.00;101099.03;5032026;28;46025;-77
2022/06/09 05:10:40;;;;;;;;;4.00;4.00;;;;;23.34;100.00;101097.16;5049591;28;45857;-77
2022/06/09 05:13:06;;;;;;;;;1.67;1.67;;;;;24.16;100.00;101102.28;5031934;28;45879;-77
2022/06/09 05:15:35;;;;;;;;;2.33;2.00;;;;;24.84;100.00;101090.22;5052194;28;45408;-76
2022/06/09 05:18:01;;;;;;;;;3.33;2.00;;;;;25.59;100.00;101101.16;5048974;28;46613;-76
2022/06/09 05:20:27;;;;;;;;;3.67;2.00;;;;;25.96;100.00;101074.16;5047738;28;45895;-76
2022/06/09 05:22:52;;;;;;;;;2.00;2.00;;;;;26.56;100.00;101108.06;5049622;28;46903;-78
2022/06/09 05:25:19;;;;;;;;;5.67;2.67;;;;;26.07;100.00;101103.84;5051518;28;45837;-78
2022/06/09 05:27:45;;;;;;;;;4.50;1.25;;;;;25.48;100.00;101078.81;5051878;28;45571;-76
2022/06/09 05:30:18;;;;;;;;;3.50;1.00;;;;;26.29;100.00;101122.03;5032085;28;45988;-80
2022/06/09 05:32:44;;;;;;;;;1.00;1.00;;;;;26.72;100.00;101124.69;5048632;28;45423;-80
2022/06/09 05:35:10;;;;;;;;;3.00;1.67;;;;;26.27;100.00;101135.56;5046391;28;45833;-80
2022/06/09 05:45:47;;;;;;;;;3.75;2.25;;;;;23.35;100.00;101098.84;5052406;28;45797;-76
2022/06/09 05:48:13;;;;;;;;;3.33;3.00;;;;;23.11;100.00;101137.81;5034218;28;46997;-73
2022/06/09 05:50:38;;;;;;;;;4.33;2.00;;;;;22.83;100.00;101145.66;5052139;28;45430;-82
2022/06/09 05:55:39;;;;;;;;;3.33;3.00;;;;;22.49;100.00;101151.84;5042403;22;45486;-74
2022/06/09 05:58:05;;;;;;;;;3.00;3.00;;;;;23.41;100.00;101154.53;5043824;28;45889;-72
2022/06/09 06:00:30;;;;;;;;;1.00;1.00;;;;;24.01;100.00;101136.84;5050052;28;45801;-75
2022/06/09 06:02:57;;;;;;;;;2.00;2.00;;;;;24.61;100.00;101155.50;5047214;28;45418;-74
2022/06/09 06:08:07;;;;;;;;;4.67;3.00;;;;;26.52;100.00;101154.81;5036859;28;46367;-76
2022/06/09 06:10:33;;;;;;;;;1.00;1.00;;;;;26.34;100.00;101148.09;5040394;28;45723;-79
2022/06/09 06:12:59;;;;;;;;;4.00;2.00;;;;;26.32;100.00;101172.88;5041854;28;45945;-75
2022/06/09 06:15:25;;;;;;;;;4.67;3.00;;;;;26.57;100.00;101174.44;5026564;28;46115;-75
2022/06/09 06:17:54;;;;;;;;;3.00;3.00;;;;;27.10;100.00;101175.25;5031122;28;46606;-76
2022/06/09 06:20:21;;;;;;;;;3.00;3.00;;;;;27.33;100.00;101166.94;5044663;28;45819;-75
2022/06/09 06:22:48;;;;;;;;;4.00;1.75;;;;;27.74;99.34;101166.94;5048665;28;45693;-75
2022/06/09 06:25:14;;;;;;;;;2.00;2.00;;;;;28.06;97.05;101169.94;5027882;28;45490;-73
2022/06/09 06:27:40;;;;;;;;;2.75;1.00;;;;;27.87;95.67;101142.66;5043314;28;46186;-75
2022/06/09 06:30:06;;;;;;;;;3.00;1.00;;;;;28.63;94.94;101170.25;5032400;28;45793;-75
2022/06/09 06:32:33;;;;;;;;;5.25;2.50;;;;;28.46;93.49;101170.06;5039277;28;45608;-78
2022/06/09 06:34:59;;;;;;;;;6.50;3.75;;;;;29.41;89.86;101185.97;5043619;28;45946;-76
2022/06/09 06:37:24;;;;;;;;;1.50;1.50;;;;;30.40;84.34;101179.88;5041207;28;46208;-76
2022/06/09 06:39:50;;;;;;;;;3.00;3.00;;;;;31.49;78.80;101165.63;5049062;28;45343;-77
2022/06/09 06:42:16;;;;;;;;;3.25;2.00;;;;;32.84;74.12;101181.81;5041561;28;45499;-76
2022/06/09 06:44:44;;;;;;;;;2.00;1.50;;;;;33.89;68.83;101169.13;5036357;28;45677;-77
2022/06/09 06:47:11;;;;;;;;;4.50;2.25;;;;;34.92;63.39;101181.97;5043822;28;47371;-76
2022/06/09 06:49:37;;;;;;;;;1.75;1.75;;;;;35.79;58.02;101187.06;5012653;28;45823;-78
2022/06/09 06:52:04;;;;;;;;;2.25;1.25;;;;;36.69;53.24;101192.69;5024782;28;45852;-81
2022/06/09 06:54:30;;;;;;;;;2.75;1.00;;;;;37.45;49.54;101188.41;5029056;28;46878;-77
2022/06/09 06:56:57;;;;;;;;;3.50;3.25;;;;;38.19;46.88;101189.16;5018112;28;45859;-78
2022/06/09 06:59:23;;;;;;;;;1.00;1.00;;;;;38.90;42.74;101197.00;5040917;28;45485;-76
2022/06/09 07:01:48;;;;;;;;;1.75;1.75;;;;;39.06;41.26;101185.25;5048251;28;46768;-75
2022/06/09 07:04:15;;;;;;;;;1.50;1.50;;;;;39.63;40.61;101205.06;5050291;28;45827;-75
2022/06/09 07:06:40;;;;;;;;;2.75;1.75;;;;;40.12;37.22;101195.16;5048169;28;46918;-76
2022/06/09 07:09:05;;;;;;;;;3.00;3.00;;;;;40.81;36.75;101216.38;5046639;28;45776;-74
2022/06/09 07:11:31;;;;;;;;;5.50;3.00;;;;;41.27;33.93;101220.59;5028062;28;45806;-73
2022/06/09 07:13:56;;;;;;;;;1.00;1.00;;;;;41.80;32.38;101224.75;5031669;28;46082;-74
2022/06/09 07:16:22;;;;;;;;;2.00;2.00;;;;;42.23;32.18;101220.97;5049742;28;45867;-75
2022/06/09 07:18:47;;;;;;;;;2.00;2.00;;;;;42.96;29.48;101214.44;5029382;28;45753;-75
2022/06/09 07:21:14;;;;;;;;;2.50;2.50;;;;;42.93;28.52;101226.00;5049257;28;46450;-77
2022/06/09 07:23:39;;;;;;;;;2.25;2.00;;;;;43.41;28.12;101236.84;5035116;28;45949;-75
2022/06/09 07:26:05;;;;;;;;;3.50;2.00;;;;;43.83;26.96;101234.03;5049641;28;46301;-75
2022/06/09 07:28:31;;;;;;;;;3.00;1.00;;;;;43.83;26.53;101226.16;5048513;28;45889;-75
2022/06/09 07:31:12;;;;;;;;;4.50;2.50;;;;;43.98;27.08;101237.56;5040733;28;45821;-74
2022/06/09 07:34:12;;;;;;;;;1.00;1.00;;;;;44.30;25.81;101237.25;5044994;28;46005;-75
2022/06/09 07:36:42;;;;;;;;;2.25;2.25;;;;;44.61;25.37;101222.78;5041414;28;47419;-77
2022/06/09 07:39:29;;;;;;;;;3.00;3.00;;;;;44.69;24.44;101207.00;5041427;28;45592;-75
2022/06/09 07:41:55;;;;;;;;;2.50;2.50;;;;;44.23;24.15;101197.66;5048516;28;45903;-76
2022/06/09 07:44:23;;;;;;;;;4.75;3.00;;;;;44.91;23.97;101227.72;5049670;28;45394;-75
2022/06/09 07:47:07;;;;;;;;;2.75;1.25;;;;;45.31;22.77;101212.66;5053636;28;46554;-76
2022/06/09 07:49:36;;;;;;;;;2.25;2.00;;;;;45.59;22.70;101204.75;5050146;28;45427;-77
2022/06/09 07:52:14;;;;;;;;;4.00;3.50;;;;;45.37;22.71;101219.59;5051048;28;45739;-76
2022/06/09 07:57:42;;;;;;;;;3.75;2.00;;;;;45.96;22.40;101249.22;5010726;28;45553;-75
2022/06/09 08:00:21;;;;;;;;;2.75;2.75;;;;;44.12;23.65;101254.75;5033640;28;45821;-75
2022/06/09 08:02:50;;;;;;;;;2.50;2.50;;;;;43.83;23.75;101246.38;5025511;28;45414;-77
2022/06/09 08:05:40;;;;;;;;;2.75;1.50;;;;;44.33;23.90;101258.69;5053461;28;45603;-77
2022/06/09 08:08:05;;;;;;;;;1.00;1.00;;;;;44.76;22.79;101252.38;5042125;28;46126;-75
2022/06/09 08:10:37;;;;;;;;;2.00;2.00;;;;;44.75;21.44;101176.31;5039797;28;45857;-77
2022/06/09 08:13:14;;;;;;;;;3.50;3.00;;;;;45.69;21.44;101258.78;5053951;28;45849;-77
2022/06/09 08:16:08;;;;;;;;;3.00;2.00;;;;;46.03;20.54;101204.78;5052528;28;45602;-78
2022/06/09 08:18:44;;;;;;;;;4.75;2.00;;;;;46.43;21.36;101223.03;5053668;28;46113;-78
2022/06/09 08:21:32;;;;;;;;;2.33;2.33;;;;;47.22;20.04;101238.66;5028013;28;45811;-78
2022/06/09 08:23:59;;;;;;;;;3.00;3.00;;;;;47.31;19.67;101223.50;5044938;28;45713;-76
2022/06/09 08:26:35;;;;;;;;;1.33;1.33;;;;;46.48;20.45;101260.19;5052084;28;45595;-76
2022/06/09 08:29:07;;;;;;;;;2.67;2.67;;;;;46.78;20.73;101272.84;5050852;28;47726;-75
2022/06/09 08:31:41;;;;;;;;;2.67;2.00;;;;;46.97;19.56;101247.16;5049815;28;45712;-74
2022/06/09 08:34:25;;;;;;;;;2.00;2.00;;;;;47.64;19.08;101280.78;5050566;28;45530;-75
2022/06/09 08:36:57;;;;;;;;;3.00;3.00;;;;;48.16;18.13;101274.00;5030372;28;45742;-76
2022/06/09 08:39:44;;;;;;;;;2.33;2.33;;;;;48.53;18.18;101271.72;5045991;28;46723;-76
2022/06/09 08:42:58;;;;;;;;;2.33;2.00;;;;;47.45;18.78;101216.53;5042674;28;45388;-76
2022/06/09 08:45:48;;;;;;;;;2.00;1.67;;;;;45.71;19.70;101236.00;5034827;28;45959;-75
2022/06/09 08:48:34;;;;;;;;;5.33;3.00;;;;;44.13;21.47;101249.81;5043065;28;45562;-76
2022/06/09 08:51:05;;;;;;;;;2.67;2.33;;;;;43.36;22.86;101278.53;5046877;28;46226;-77
2022/06/09 08:53:54;;;;;;;;;2.67;2.67;;;;;41.95;23.02;101229.25;5036018;28;45936;-79
2022/06/09 08:56:26;;;;;;;;;1.33;1.33;;;;;40.75;24.63;101267.75;5034824;28;45433;-76
2022/06/09 08:59:24;;;;;;;;;2.75;2.00;;;;;39.50;27.28;101259.91;5034052;28;45425;-76
2022/06/09 09:02:01;;;;;;;;;3.50;2.00;;;;;39.60;27.82;101264.13;5025727;28;46063;-77
2022/06/09 09:04:42;;;;;;;;;2.25;1.25;;;;;39.97;27.99;101271.78;5030480;28;45115;-78
2022/06/09 09:07:30;;;;;;;;;3.75;2.50;;;;;41.33;25.91;101262.16;5030595;28;45565;-77
2022/06/09 09:10:11;;;;;;;;;5.00;3.00;;;;;42.74;24.19;101259.91;5046201;28;45878;-77
2022/06/09 09:12:42;;;;;;;;;2.75;1.25;;;;;44.06;21.91;101251.53;5031403;28;45839;-75
2022/06/09 09:15:36;;;;;;;;;1.50;1.25;;;;;43.19;22.47;101257.22;5017874;28;45649;-76
2022/06/09 09:18:20;;;;;;;;;2.50;2.50;;;;;43.30;21.99;101245.56;5024468;28;45548;-76
2022/06/09 09:21:08;;;;;;;;;2.50;2.50;;;;;42.55;23.16;101252.56;5032944;28;45623;-78
2022/06/09 09:23:46;;;;;;;;;2.25;2.25;;;;;42.91;23.22;101260.22;5019053;28;45582;-78
2022/06/09 09:26:49;;;;;;;;;1.00;1.00;;;;;42.06;23.35;101268.75;5031393;28;44819;-77
2022/06/09 09:29:25;;;;;;;;;4.75;1.00;;;;;41.51;24.44;101276.56;4988365;28;45764;-78
2022/06/09 09:32:08;;;;;;;;;4.75;1.00;;;;;40.53;25.97;101278.34;5027453;28;45950;-76
2022/06/09 09:34:45;;;;;;;;;1.50;1.00;;;;;40.38;25.98;101262.22;5032177;28;45924;-75
2022/06/09 09:37:38;;;;;;;;;1.75;1.25;;;;;39.75;26.58;101252.75;5030746;28;45921;-76
2022/06/09 09:40:19;;;;;;;;;3.00;1.50;;;;;40.35;26.58;101263.84;5026198;28;45464;-77
2022/06/09 09:42:46;;;;;;;;;2.00;2.00;;;;;39.79;26.97;101277.38;5030834;28;45592;-75
2022/06/09 09:45:11;;;;;;;;;3.00;1.50;;;;;38.96;27.67;101270.00;5029317;28;48260;-75
2022/06/09 09:47:48;;;;;;;;;3.00;2.00;;;;;38.02;29.74;101277.28;5029949;28;45906;-76
2022/06/09 09:50:58;;;;;;;;;2.00;1.75;;;;;37.67;29.18;101274.63;5030297;28;45482;-78
2022/06/09 09:53:38;;;;;;;;;1.25;1.25;;;;;38.60;29.71;101281.00;5020698;28;45989;-77
2022/06/09 09:56:05;;;;;;;;;5.00;2.25;;;;;40.41;27.20;101284.41;5039810;28;45869;-77
2022/06/09 09:58:46;;;;;;;;;2.00;1.00;;;;;42.24;24.51;101281.09;5032137;28;45481;-77
2022/06/09 10:01:18;;;;;;;;;2.25;1.00;;;;;41.83;24.57;101286.47;5024693;28;45659;-75
2022/06/09 10:09:46;;;;;;;;;0.75;0.75;;;;;37.98;27.15;101290.69;5022600;28;45707;-76
2022/06/09 10:12:33;;;;;;;;;1.00;1.00;;;;;36.56;28.57;101303.50;5025495;28;45631;-74
2022/06/09 10:15:04;;;;;;;;;1.00;1.00;;;;;35.35;31.88;101296.38;5015044;28;45926;-76
2022/06/09 10:17:48;;;;;;;;;2.25;0.75;;;;;34.33;37.43;101303.13;5029279;28;45775;-76
2022/06/09 10:20:14;;;;;;;;;3.00;2.00;;;;;33.27;42.96;101307.63;5022746;28;45809;-76
2022/06/09 10:22:42;;;;;;;;;3.00;1.75;;;;;32.65;45.07;101299.59;5027660;28;45581;-76
2022/06/09 10:25:35;;;;;;;;;3.00;1.50;;;;;32.08;47.83;101320.00;5027682;28;45912;-78
2022/06/09 10:28:10;;;;;;;;;2.75;1.00;;;;;31.63;49.93;101321.34;5033116;28;46850;-76
2022/06/09 10:30:43;;;;;;;;;1.25;1.25;;;;;31.33;50.00;101307.06;5026800;28;44985;-76
2022/06/09 10:33:25;;;;;;;;;2.25;1.00;;;;;30.99;50.86;101314.47;5037127;28;45803;-77
2022/06/09 10:36:00;;;;;;;;;1.00;1.00;;;;;30.76;52.57;101314.59;5027287;28;45764;-77
2022/06/09 10:38:31;;;;;;;;;3.00;1.50;;;;;30.64;53.58;101308.75;5019295;28;46187;-78
2022/06/09 10:41:05;;;;;;;;;2.00;1.00;;;;;30.45;53.87;101306.22;5024974;28;45716;-77
2022/06/09 10:43:57;;;;;;;;;2.25;2.25;;;;;30.43;55.37;101322.72;5018865;28;45935;-77
2022/06/09 10:46:28;;;;;;;;;2.00;1.50;;;;;30.45;52.66;101318.41;5039740;28;45597;-77
2022/06/09 10:55:14;;;;;;;;;2.00;2.00;;;;;30.88;54.51;101318.75;5031046;28;45820;-79
2022/06/09 10:57:45;;;;;;;;;1.75;1.75;;;;;30.84;55.75;101329.09;5025874;28;45797;-76
2022/06/09 11:00:16;;;;;;;;;2.00;2.00;;;;;30.80;55.98;101317.59;5020793;28;45889;-76
2022/06/09 11:02:51;;;;;;;;;2.75;1.00;;;;;31.02;55.51;101336.47;5049095;28;45767;-76
2022/06/09 11:05:22;;;;;;;;;1.00;1.00;;;;;31.28;55.30;101336.41;5032321;28;45741;-76
2022/06/09 11:08:21;;;;;;;;;1.50;1.25;;;;;31.42;52.88;101336.22;5029193;28;45595;-76
2022/06/09 11:10:58;;;;;;;;;1.00;1.00;;;;;31.42;52.36;101344.72;5037045;28;46762;-76
2022/06/09 11:13:37;;;;;;;;;2.50;1.00;;;;;31.35;54.06;101344.41;5040291;28;45460;-76
2022/06/09 11:16:23;;;;;;;;;1.75;1.75;;;;;31.76;52.08;101345.81;5028802;28;45752;-76
2022/06/09 11:19:04;;;;;;;;;1.50;1.50;;;;;31.95;48.95;101341.75;5045569;28;45598;-76
2022/06/09 11:22:01;;;;;;;;;2.50;2.00;;;;;31.94;48.78;101318.22;5047446;28;45775;-76
2022/06/09 11:24:34;;;;;;;;;5.75;3.00;;;;;31.99;47.07;101349.25;5030635;28;45747;-78
2022/06/09 11:27:24;;;;;;;;;2.75;1.00;;;;;31.85;46.32;101345.78;5050507;28;45454;-76
2022/06/09 11:30:14;;;;;;;;;1.75;1.75;;;;;31.76;47.15;101328.81;5034620;28;45716;-82
2022/06/09 11:32:57;;;;;;;;;3.00;1.00;;;;;31.85;46.83;101346.63;5026643;28;46920;-83
2022/06/09 11:35:41;;;;;;;;;1.00;1.00;;;;;31.95;48.29;101342.59;5030274;28;45767;-83
2022/06/09 11:38:41;;;;;;;;;2.00;0.50;;;;;32.05;49.47;101330.00;5046944;28;45577;-77
2022/06/09 11:41:31;;;;;;;;;1.50;1.50;;;;;31.90;47.80;101314.38;5007235;28;45584;-78
2022/06/09 11:44:16;;;;;;;;;1.75;1.00;;;;;31.82;47.82;101330.28;5050117;28;47273;-80
2022/06/09 11:46:44;;;;;;;;;1.75;0.25;;;;;31.71;47.93;101331.84;5032796;28;45925;-80
2022/06/09 11:49:19;;;;;;;;;1.75;1.25;;;;;31.73;50.06;101340.84;5051341;28;45778;-79
2022/06/09 11:51:45;;;;;;;;;2.00;1.00;;;;;31.83;48.11;101331.97;5051284;28;45938;-78
2022/06/09 11:54:34;;;;;;;;;1.50;1.00;;;;;32.05;45.04;101344.19;5051679;28;45946;-77
2022/06/09 11:57:48;;;;;;;;;1.00;1.00;;;;;32.23;44.69;101338.47;5036513;28;45554;-76
2022/06/09 12:00:26;;;;;;;;;2.00;1.00;;;;;32.30;47.16;101344.44;5004672;28;45814;-75
2022/06/09 12:03:19;;;;;;;;;1.25;1.25;;;;;32.34;47.27;101349.09;5042567;28;45729;-76
2022/06/09 12:05:57;;;;;;;;;2.00;1.00;;;;;32.21;45.65;101336.78;5025690;28;46943;-76
2022/06/09 12:08:44;;;;;;;;;0.50;0.25;;;;;32.17;46.79;101344.34;5047274;28;45761;-76
2022/06/09 12:11:24;;;;;;;;;2.00;1.50;;;;;32.05;46.50;101335.69;5029535;28;45792;-81
2022/06/09 12:14:16;;;;;;;;;1.00;1.00;;;;;31.77;47.33;101339.00;5044284;28;45977;-81
2022/06/09 12:17:05;;;;;;;;;1.25;1.00;;;;;31.53;48.38;101353.72;5048699;28;46061;-78